sensor_id;sensor_type;location;lat;lon;timestamp;P1;durP1;ratioP1;P2;durP2;ratioP2
19593;SDS011;9944;48.240;16.478;2022-12-08T00:02:17;4.88;;;2.70;;
19593;SDS011;9944;48.240;16.478;2022-12-08T00:06:21;3.20;;;2.45;;
19593;SDS011;9944;48.240;16.478;2022-12-08T00:10:43;3.55;;;2.40;;
19593;SDS011;9944;48.240;16.478;2022-12-08T00:14:51;3.33;;;2.33;;
19593;SDS011;9944;48.240;16.478;2022-12-08T00:18:55;3.55;;;1.98;;
19593;SDS011;9944;48.240;16.478;2022-12-08T00:22:58;2.20;;;1.75;;
19593;SDS011;9944;48.240;16.478;2022-12-08T00:27:01;3.85;;;2.55;;
19593;SDS011;9944;48.240;16.478;2022-12-08T00:31:09;4.00;;;2.25;;
19593;SDS011;9944;48.240;16.478;2022-12-08T00:35:13;3.58;;;2.20;;
19593;SDS011;9944;48.240;16.478;2022-12-08T00:39:16;3.17;;;2.25;;
19593;SDS011;9944;48.240;16.478;2022-12-08T00:43:19;2.60;;;1.70;;
19593;SDS011;9944;48.240;16.478;2022-12-08T00:47:24;3.08;;;2.10;;
19593;SDS011;9944;48.240;16.478;2022-12-08T00:51:27;3.13;;;2.03;;
19593;SDS011;9944;48.240;16.478;2022-12-08T00:55:30;3.47;;;2.08;;
19593;SDS011;9944;48.240;16.478;2022-12-08T00:59:32;6.28;;;2.72;;
19593;SDS011;9944;48.240;16.478;2022-12-08T01:03:37;4.25;;;2.80;;
19593;SDS011;9944;48.240;16.478;2022-12-08T01:07:40;4.43;;;2.95;;
19593;SDS011;9944;48.240;16.478;2022-12-08T01:11:43;4.97;;;3.03;;
19593;SDS011;9944;48.240;16.478;2022-12-08T01:15:46;5.55;;;3.17;;
19593;SDS011;9944;48.240;16.478;2022-12-08T01:19:52;7.72;;;3.45;;
19593;SDS011;9944;48.240;16.478;2022-12-08T01:23:55;4.63;;;2.90;;
19593;SDS011;9944;48.240;16.478;2022-12-08T01:27:58;5.78;;;3.17;;
19593;SDS011;9944;48.240;16.478;2022-12-08T01:32:01;5.13;;;2.83;;
19593;SDS011;9944;48.240;16.478;2022-12-08T01:36:06;3.55;;;2.45;;
19593;SDS011;9944;48.240;16.478;2022-12-08T01:40:09;5.97;;;2.80;;
19593;SDS011;9944;48.240;16.478;2022-12-08T01:48:54;4.45;;;2.83;;
19593;SDS011;9944;48.240;16.478;2022-12-08T01:53:05;3.80;;;2.60;;
19593;SDS011;9944;48.240;16.478;2022-12-08T01:57:13;5.22;;;3.00;;
19593;SDS011;9944;48.240;16.478;2022-12-08T02:01:20;5.07;;;2.75;;
19593;SDS011;9944;48.240;16.478;2022-12-08T02:05:24;4.25;;;2.70;;
19593;SDS011;9944;48.240;16.478;2022-12-08T02:09:30;5.53;;;2.80;;
19593;SDS011;9944;48.240;16.478;2022-12-08T02:13:35;4.10;;;2.50;;
19593;SDS011;9944;48.240;16.478;2022-12-08T02:17:44;4.63;;;2.80;;
19593;SDS011;9944;48.240;16.478;2022-12-08T02:21:57;4.40;;;2.67;;
19593;SDS011;9944;48.240;16.478;2022-12-08T02:26:15;3.25;;;2.38;;
19593;SDS011;9944;48.240;16.478;2022-12-08T02:30:46;5.53;;;2.78;;
19593;SDS011;9944;48.240;16.478;2022-12-08T02:34:57;3.50;;;2.60;;
19593;SDS011;9944;48.240;16.478;2022-12-08T02:39:08;3.75;;;2.63;;
19593;SDS011;9944;48.240;16.478;2022-12-08T02:43:21;4.53;;;2.80;;
19593;SDS011;9944;48.240;16.478;2022-12-08T02:47:31;3.85;;;2.53;;
19593;SDS011;9944;48.240;16.478;2022-12-08T02:51:37;3.92;;;2.60;;
19593;SDS011;9944;48.240;16.478;2022-12-08T02:55:42;4.72;;;2.65;;
19593;SDS011;9944;48.240;16.478;2022-12-08T03:00:01;4.22;;;2.70;;
19593;SDS011;9944;48.240;16.478;2022-12-08T03:04:09;5.30;;;2.83;;
19593;SDS011;9944;48.240;16.478;2022-12-08T03:08:23;5.18;;;2.70;;
19593;SDS011;9944;48.240;16.478;2022-12-08T03:12:35;4.40;;;2.78;;
19593;SDS011;9944;48.240;16.478;2022-12-08T03:16:43;5.40;;;3.10;;
19593;SDS011;9944;48.240;16.478;2022-12-08T03:20:50;4.18;;;2.92;;
19593;SDS011;9944;48.240;16.478;2022-12-08T03:24:55;5.35;;;2.92;;
19593;SDS011;9944;48.240;16.478;2022-12-08T03:28:59;4.10;;;2.63;;
19593;SDS011;9944;48.240;16.478;2022-12-08T03:33:03;5.07;;;3.03;;
19593;SDS011;9944;48.240;16.478;2022-12-08T03:37:12;4.00;;;2.95;;
19593;SDS011;9944;48.240;16.478;2022-12-08T03:41:17;6.00;;;3.22;;
19593;SDS011;9944;48.240;16.478;2022-12-08T03:45:20;5.40;;;3.20;;
19593;SDS011;9944;48.240;16.478;2022-12-08T03:49:23;6.10;;;3.25;;
19593;SDS011;9944;48.240;16.478;2022-12-08T03:53:26;4.70;;;3.33;;
19593;SDS011;9944;48.240;16.478;2022-12-08T03:57:31;4.43;;;3.40;;
19593;SDS011;9944;48.240;16.478;2022-12-08T04:01:34;6.32;;;3.38;;
19593;SDS011;9944;48.240;16.478;2022-12-08T04:05:38;5.00;;;3.28;;
19593;SDS011;9944;48.240;16.478;2022-12-08T04:09:41;4.65;;;3.30;;
19593;SDS011;9944;48.240;16.478;2022-12-08T04:13:46;4.38;;;3.00;;
19593;SDS011;9944;48.240;16.478;2022-12-08T04:17:50;6.90;;;3.15;;
19593;SDS011;9944;48.240;16.478;2022-12-08T04:21:53;4.93;;;3.60;;
19593;SDS011;9944;48.240;16.478;2022-12-08T04:25:56;5.63;;;3.38;;
19593;SDS011;9944;48.240;16.478;2022-12-08T04:30:01;4.78;;;3.25;;
19593;SDS011;9944;48.240;16.478;2022-12-08T04:34:05;7.03;;;3.28;;
19593;SDS011;9944;48.240;16.478;2022-12-08T04:38:08;5.90;;;3.50;;
19593;SDS011;9944;48.240;16.478;2022-12-08T04:42:11;4.60;;;3.13;;
19593;SDS011;9944;48.240;16.478;2022-12-08T04:46:15;4.32;;;3.10;;
19593;SDS011;9944;48.240;16.478;2022-12-08T04:50:20;7.28;;;3.42;;
19593;SDS011;9944;48.240;16.478;2022-12-08T04:54:23;4.65;;;3.28;;
19593;SDS011;9944;48.240;16.478;2022-12-08T04:58:27;5.93;;;3.42;;
19593;SDS011;9944;48.240;16.478;2022-12-08T05:02:32;4.82;;;3.15;;
19593;SDS011;9944;48.240;16.478;2022-12-08T05:06:35;6.78;;;3.58;;
19593;SDS011;9944;48.240;16.478;2022-12-08T05:10:38;7.03;;;3.38;;
19593;SDS011;9944;48.240;16.478;2022-12-08T05:14:41;5.68;;;2.95;;
19593;SDS011;9944;48.240;16.478;2022-12-08T05:18:46;5.20;;;3.10;;
19593;SDS011;9944;48.240;16.478;2022-12-08T05:22:49;5.30;;;3.25;;
19593;SDS011;9944;48.240;16.478;2022-12-08T05:26:52;4.97;;;3.22;;
19593;SDS011;9944;48.240;16.478;2022-12-08T05:30:55;4.60;;;3.33;;
19593;SDS011;9944;48.240;16.478;2022-12-08T05:34:59;4.70;;;3.08;;
19593;SDS011;9944;48.240;16.478;2022-12-08T05:39:03;4.97;;;3.30;;
19593;SDS011;9944;48.240;16.478;2022-12-08T05:43:06;4.50;;;2.88;;
19593;SDS011;9944;48.240;16.478;2022-12-08T05:47:09;4.93;;;2.92;;
19593;SDS011;9944;48.240;16.478;2022-12-08T05:51:16;5.75;;;3.20;;
19593;SDS011;9944;48.240;16.478;2022-12-08T05:55:21;5.45;;;3.38;;
19593;SDS011;9944;48.240;16.478;2022-12-08T05:59:24;5.82;;;3.47;;
19593;SDS011;9944;48.240;16.478;2022-12-08T06:03:27;6.25;;;3.65;;
19593;SDS011;9944;48.240;16.478;2022-12-08T06:07:32;6.00;;;3.63;;
19593;SDS011;9944;48.240;16.478;2022-12-08T06:11:35;4.97;;;3.70;;
19593;SDS011;9944;48.240;16.478;2022-12-08T06:15:38;6.03;;;3.63;;
19593;SDS011;9944;48.240;16.478;2022-12-08T06:19:42;6.28;;;3.72;;
19593;SDS011;9944;48.240;16.478;2022-12-08T06:23:47;6.20;;;3.88;;
19593;SDS011;9944;48.240;16.478;2022-12-08T06:27:51;4.57;;;3.45;;
19593;SDS011;9944;48.240;16.478;2022-12-08T06:31:54;8.35;;;4.50;;
19593;SDS011;9944;48.240;16.478;2022-12-08T06:35:58;5.80;;;3.95;;
19593;SDS011;9944;48.240;16.478;2022-12-08T06:40:02;6.13;;;4.10;;
19593;SDS011;9944;48.240;16.478;2022-12-08T06:44:06;6.70;;;4.45;;
19593;SDS011;9944;48.240;16.478;2022-12-08T06:48:09;8.30;;;4.45;;
19593;SDS011;9944;48.240;16.478;2022-12-08T06:52:12;5.50;;;4.13;;
19593;SDS011;9944;48.240;16.478;2022-12-08T06:56:17;5.97;;;4.32;;
19593;SDS011;9944;48.240;16.478;2022-12-08T07:00:22;6.28;;;3.80;;
19593;SDS011;9944;48.240;16.478;2022-12-08T07:04:26;7.90;;;4.07;;
19593;SDS011;9944;48.240;16.478;2022-12-08T07:08:29;6.72;;;4.50;;
19593;SDS011;9944;48.240;16.478;2022-12-08T07:12:34;5.43;;;4.10;;
19593;SDS011;9944;48.240;16.478;2022-12-08T07:16:37;7.65;;;4.60;;
19593;SDS011;9944;48.240;16.478;2022-12-08T07:20:40;8.18;;;4.93;;
19593;SDS011;9944;48.240;16.478;2022-12-08T07:24:44;12.55;;;6.57;;
19593;SDS011;9944;48.240;16.478;2022-12-08T07:28:48;7.82;;;5.50;;
19593;SDS011;9944;48.240;16.478;2022-12-08T07:32:51;7.40;;;4.97;;
19593;SDS011;9944;48.240;16.478;2022-12-08T07:36:54;8.73;;;5.15;;
19593;SDS011;9944;48.240;16.478;2022-12-08T07:40:57;10.52;;;5.32;;
19593;SDS011;9944;48.240;16.478;2022-12-08T07:45:03;11.07;;;5.55;;
19593;SDS011;9944;48.240;16.478;2022-12-08T07:49:06;8.27;;;4.72;;
19593;SDS011;9944;48.240;16.478;2022-12-08T07:53:09;7.72;;;5.20;;
19593;SDS011;9944;48.240;16.478;2022-12-08T07:57:13;8.60;;;4.82;;
19593;SDS011;9944;48.240;16.478;2022-12-08T08:01:21;9.75;;;5.22;;
19593;SDS011;9944;48.240;16.478;2022-12-08T08:05:26;9.02;;;5.22;;
19593;SDS011;9944;48.240;16.478;2022-12-08T08:09:29;10.38;;;5.55;;
19593;SDS011;9944;48.240;16.478;2022-12-08T08:13:32;9.93;;;6.00;;
19593;SDS011;9944;48.240;16.478;2022-12-08T08:17:37;9.50;;;5.78;;
19593;SDS011;9944;48.240;16.478;2022-12-08T08:21:40;8.57;;;5.30;;
19593;SDS011;9944;48.240;16.478;2022-12-08T08:25:47;8.95;;;5.72;;
19593;SDS011;9944;48.240;16.478;2022-12-08T08:29:50;7.63;;;5.38;;
19593;SDS011;9944;48.240;16.478;2022-12-08T08:33:54;7.55;;;5.30;;
19593;SDS011;9944;48.240;16.478;2022-12-08T08:37:57;8.60;;;5.53;;
19593;SDS011;9944;48.240;16.478;2022-12-08T08:42:01;10.57;;;5.50;;
19593;SDS011;9944;48.240;16.478;2022-12-08T08:46:04;10.07;;;5.97;;
19593;SDS011;9944;48.240;16.478;2022-12-08T08:50:10;10.30;;;5.88;;
19593;SDS011;9944;48.240;16.478;2022-12-08T08:54:14;8.20;;;5.05;;
19593;SDS011;9944;48.240;16.478;2022-12-08T08:58:17;8.82;;;5.30;;
19593;SDS011;9944;48.240;16.478;2022-12-08T09:02:20;7.60;;;4.72;;
19593;SDS011;9944;48.240;16.478;2022-12-08T09:06:25;8.20;;;4.90;;
19593;SDS011;9944;48.240;16.478;2022-12-08T09:10:29;9.18;;;5.30;;
19593;SDS011;9944;48.240;16.478;2022-12-08T09:14:33;7.72;;;4.70;;
19593;SDS011;9944;48.240;16.478;2022-12-08T09:18:36;6.78;;;4.28;;
19593;SDS011;9944;48.240;16.478;2022-12-08T09:22:41;8.63;;;4.80;;
19593;SDS011;9944;48.240;16.478;2022-12-08T09:26:44;8.95;;;5.05;;
19593;SDS011;9944;48.240;16.478;2022-12-08T09:30:48;8.43;;;5.03;;
19593;SDS011;9944;48.240;16.478;2022-12-08T09:34:52;7.68;;;4.53;;
19593;SDS011;9944;48.240;16.478;2022-12-08T09:38:57;6.63;;;4.05;;
19593;SDS011;9944;48.240;16.478;2022-12-08T09:43:01;8.35;;;4.95;;
19593;SDS011;9944;48.240;16.478;2022-12-08T09:47:12;7.28;;;4.40;;
19593;SDS011;9944;48.240;16.478;2022-12-08T09:51:20;9.18;;;4.22;;
19593;SDS011;9944;48.240;16.478;2022-12-08T09:55:31;5.90;;;4.13;;
19593;SDS011;9944;48.240;16.478;2022-12-08T09:59:42;6.53;;;3.90;;
19593;SDS011;9944;48.240;16.478;2022-12-08T10:03:49;7.35;;;4.72;;
19593;SDS011;9944;48.240;16.478;2022-12-08T10:07:55;5.97;;;4.20;;
19593;SDS011;9944;48.240;16.478;2022-12-08T10:12:09;6.95;;;4.25;;
19593;SDS011;9944;48.240;16.478;2022-12-08T10:16:18;6.57;;;4.28;;
19593;SDS011;9944;48.240;16.478;2022-12-08T10:20:33;6.97;;;4.60;;
19593;SDS011;9944;48.240;16.478;2022-12-08T10:24:39;6.28;;;3.95;;
19593;SDS011;9944;48.240;16.478;2022-12-08T10:28:47;6.50;;;4.05;;
19593;SDS011;9944;48.240;16.478;2022-12-08T10:32:51;6.97;;;4.10;;
19593;SDS011;9944;48.240;16.478;2022-12-08T10:36:56;8.02;;;4.60;;
19593;SDS011;9944;48.240;16.478;2022-12-08T10:41:02;6.88;;;4.28;;
19593;SDS011;9944;48.240;16.478;2022-12-08T10:45:20;7.43;;;4.55;;
19593;SDS011;9944;48.240;16.478;2022-12-08T10:49:27;6.85;;;4.13;;
19593;SDS011;9944;48.240;16.478;2022-12-08T10:53:34;7.88;;;4.63;;
19593;SDS011;9944;48.240;16.478;2022-12-08T10:57:47;6.88;;;4.68;;
19593;SDS011;9944;48.240;16.478;2022-12-08T11:01:52;8.25;;;4.72;;
19593;SDS011;9944;48.240;16.478;2022-12-08T11:05:58;8.95;;;4.90;;
19593;SDS011;9944;48.240;16.478;2022-12-08T11:10:14;8.70;;;5.25;;
19593;SDS011;9944;48.240;16.478;2022-12-08T11:14:21;8.68;;;4.72;;
19593;SDS011;9944;48.240;16.478;2022-12-08T11:18:28;7.70;;;4.57;;
19593;SDS011;9944;48.240;16.478;2022-12-08T11:22:34;7.45;;;4.47;;
19593;SDS011;9944;48.240;16.478;2022-12-08T11:26:40;8.88;;;5.50;;
19593;SDS011;9944;48.240;16.478;2022-12-08T11:30:52;9.05;;;5.22;;
19593;SDS011;9944;48.240;16.478;2022-12-08T11:35:00;8.77;;;4.53;;
19593;SDS011;9944;48.240;16.478;2022-12-08T11:39:08;8.77;;;4.78;;
19593;SDS011;9944;48.240;16.478;2022-12-08T11:43:14;9.02;;;4.97;;
19593;SDS011;9944;48.240;16.478;2022-12-08T11:47:23;8.20;;;4.70;;
19593;SDS011;9944;48.240;16.478;2022-12-08T11:51:32;8.68;;;4.85;;
19593;SDS011;9944;48.240;16.478;2022-12-08T11:55:40;9.05;;;4.88;;
19593;SDS011;9944;48.240;16.478;2022-12-08T11:59:50;8.00;;;5.05;;
19593;SDS011;9944;48.240;16.478;2022-12-08T12:04:00;8.52;;;4.93;;
19593;SDS011;9944;48.240;16.478;2022-12-08T12:08:19;8.15;;;5.20;;
19593;SDS011;9944;48.240;16.478;2022-12-08T12:12:40;8.73;;;5.10;;
19593;SDS011;9944;48.240;16.478;2022-12-08T12:17:00;8.50;;;5.32;;
19593;SDS011;9944;48.240;16.478;2022-12-08T12:21:06;9.10;;;5.10;;
19593;SDS011;9944;48.240;16.478;2022-12-08T12:25:19;8.75;;;5.50;;
19593;SDS011;9944;48.240;16.478;2022-12-08T12:29:25;8.27;;;5.00;;
19593;SDS011;9944;48.240;16.478;2022-12-08T12:33:31;9.80;;;5.88;;
19593;SDS011;9944;48.240;16.478;2022-12-08T12:37:35;10.27;;;5.65;;
19593;SDS011;9944;48.240;16.478;2022-12-08T12:41:43;8.93;;;5.80;;
19593;SDS011;9944;48.240;16.478;2022-12-08T12:45:49;10.00;;;5.55;;
19593;SDS011;9944;48.240;16.478;2022-12-08T12:54:20;9.52;;;5.50;;
19593;SDS011;9944;48.240;16.478;2022-12-08T13:02:44;8.55;;;5.47;;
19593;SDS011;9944;48.240;16.478;2022-12-08T13:06:49;9.98;;;5.32;;
19593;SDS011;9944;48.240;16.478;2022-12-08T13:10:56;8.90;;;5.53;;
19593;SDS011;9944;48.240;16.478;2022-12-08T13:15:04;9.43;;;5.57;;
19593;SDS011;9944;48.240;16.478;2022-12-08T13:19:11;10.27;;;5.47;;
19593;SDS011;9944;48.240;16.478;2022-12-08T13:23:27;10.48;;;6.43;;
19593;SDS011;9944;48.240;16.478;2022-12-08T13:27:32;9.77;;;6.15;;
19593;SDS011;9944;48.240;16.478;2022-12-08T13:31:38;10.65;;;5.75;;
19593;SDS011;9944;48.240;16.478;2022-12-08T13:35:52;12.45;;;6.57;;
19593;SDS011;9944;48.240;16.478;2022-12-08T13:40:04;10.80;;;6.68;;
19593;SDS011;9944;48.240;16.478;2022-12-08T13:44:13;10.38;;;6.13;;
19593;SDS011;9944;48.240;16.478;2022-12-08T13:48:46;10.68;;;5.82;;
19593;SDS011;9944;48.240;16.478;2022-12-08T13:53:14;10.45;;;6.10;;
19593;SDS011;9944;48.240;16.478;2022-12-08T13:57:39;12.57;;;6.05;;
19593;SDS011;9944;48.240;16.478;2022-12-08T14:01:46;11.07;;;6.60;;
19593;SDS011;9944;48.240;16.478;2022-12-08T14:05:52;10.18;;;6.03;;
19593;SDS011;9944;48.240;16.478;2022-12-08T14:10:15;12.52;;;6.50;;
19593;SDS011;9944;48.240;16.478;2022-12-08T14:14:22;10.73;;;6.60;;
19593;SDS011;9944;48.240;16.478;2022-12-08T14:18:50;9.40;;;5.65;;
19593;SDS011;9944;48.240;16.478;2022-12-08T14:22:55;11.55;;;6.10;;
19593;SDS011;9944;48.240;16.478;2022-12-08T14:27:00;14.43;;;6.38;;
19593;SDS011;9944;48.240;16.478;2022-12-08T14:31:06;9.50;;;5.93;;
19593;SDS011;9944;48.240;16.478;2022-12-08T14:35:18;11.38;;;6.28;;
19593;SDS011;9944;48.240;16.478;2022-12-08T14:39:25;10.73;;;6.35;;
19593;SDS011;9944;48.240;16.478;2022-12-08T14:43:28;10.15;;;6.72;;
19593;SDS011;9944;48.240;16.478;2022-12-08T14:47:32;12.05;;;6.68;;
19593;SDS011;9944;48.240;16.478;2022-12-08T14:51:36;11.27;;;6.40;;
19593;SDS011;9944;48.240;16.478;2022-12-08T14:55:43;10.30;;;6.28;;
19593;SDS011;9944;48.240;16.478;2022-12-08T14:59:48;11.55;;;6.43;;
19593;SDS011;9944;48.240;16.478;2022-12-08T15:03:52;10.70;;;6.65;;
19593;SDS011;9944;48.240;16.478;2022-12-08T15:08:01;13.25;;;7.20;;
19593;SDS011;9944;48.240;16.478;2022-12-08T15:12:21;13.82;;;6.60;;
19593;SDS011;9944;48.240;16.478;2022-12-08T15:16:29;11.48;;;6.60;;
19593;SDS011;9944;48.240;16.478;2022-12-08T15:20:39;11.50;;;6.47;;
19593;SDS011;9944;48.240;16.478;2022-12-08T15:24:44;11.30;;;6.93;;
19593;SDS011;9944;48.240;16.478;2022-12-08T15:28:49;11.13;;;6.80;;
19593;SDS011;9944;48.240;16.478;2022-12-08T15:32:52;11.52;;;6.82;;
19593;SDS011;9944;48.240;16.478;2022-12-08T15:36:56;10.82;;;6.38;;
19593;SDS011;9944;48.240;16.478;2022-12-08T15:41:00;10.77;;;6.82;;
19593;SDS011;9944;48.240;16.478;2022-12-08T15:45:05;12.57;;;7.47;;
19593;SDS011;9944;48.240;16.478;2022-12-08T15:49:11;12.70;;;7.18;;
19593;SDS011;9944;48.240;16.478;2022-12-08T15:53:19;11.35;;;7.45;;
19593;SDS011;9944;48.240;16.478;2022-12-08T15:57:23;11.18;;;7.22;;
19593;SDS011;9944;48.240;16.478;2022-12-08T16:01:49;10.85;;;7.18;;
19593;SDS011;9944;48.240;16.478;2022-12-08T16:05:52;11.68;;;7.03;;
19593;SDS011;9944;48.240;16.478;2022-12-08T16:10:17;11.93;;;6.93;;
19593;SDS011;9944;48.240;16.478;2022-12-08T16:14:23;13.35;;;7.40;;
19593;SDS011;9944;48.240;16.478;2022-12-08T16:18:48;12.68;;;7.30;;
19593;SDS011;9944;48.240;16.478;2022-12-08T16:22:52;12.35;;;7.30;;
19593;SDS011;9944;48.240;16.478;2022-12-08T16:27:15;12.98;;;7.80;;
19593;SDS011;9944;48.240;16.478;2022-12-08T16:31:43;12.95;;;7.55;;
19593;SDS011;9944;48.240;16.478;2022-12-08T16:35:48;13.30;;;7.55;;
19593;SDS011;9944;48.240;16.478;2022-12-08T16:39:52;15.18;;;8.15;;
19593;SDS011;9944;48.240;16.478;2022-12-08T16:43:56;13.98;;;7.45;;
19593;SDS011;9944;48.240;16.478;2022-12-08T16:48:03;12.57;;;7.35;;
19593;SDS011;9944;48.240;16.478;2022-12-08T16:52:07;13.05;;;7.80;;
19593;SDS011;9944;48.240;16.478;2022-12-08T16:56:13;13.98;;;8.13;;
19593;SDS011;9944;48.240;16.478;2022-12-08T17:00:19;15.65;;;8.00;;
19593;SDS011;9944;48.240;16.478;2022-12-08T17:04:23;15.93;;;7.65;;
19593;SDS011;9944;48.240;16.478;2022-12-08T17:08:35;14.38;;;8.02;;
19593;SDS011;9944;48.240;16.478;2022-12-08T17:12:38;12.93;;;8.30;;
19593;SDS011;9944;48.240;16.478;2022-12-08T17:16:42;14.23;;;8.18;;
19593;SDS011;9944;48.240;16.478;2022-12-08T17:20:46;17.05;;;8.05;;
19593;SDS011;9944;48.240;16.478;2022-12-08T17:24:50;16.50;;;8.90;;
19593;SDS011;9944;48.240;16.478;2022-12-08T17:28:53;13.88;;;8.13;;
19593;SDS011;9944;48.240;16.478;2022-12-08T17:33:01;12.80;;;7.78;;
19593;SDS011;9944;48.240;16.478;2022-12-08T17:37:05;13.30;;;8.18;;
19593;SDS011;9944;48.240;16.478;2022-12-08T17:41:10;15.45;;;8.43;;
19593;SDS011;9944;48.240;16.478;2022-12-08T17:45:13;18.02;;;8.70;;
19593;SDS011;9944;48.240;16.478;2022-12-08T17:49:17;15.73;;;8.70;;
19593;SDS011;9944;48.240;16.478;2022-12-08T17:53:22;16.52;;;8.63;;
19593;SDS011;9944;48.240;16.478;2022-12-08T17:57:26;15.35;;;7.70;;
19593;SDS011;9944;48.240;16.478;2022-12-08T18:01:29;15.95;;;8.15;;
19593;SDS011;9944;48.240;16.478;2022-12-08T18:05:34;14.35;;;8.65;;
19593;SDS011;9944;48.240;16.478;2022-12-08T18:09:38;13.60;;;7.90;;
19593;SDS011;9944;48.240;16.478;2022-12-08T18:13:45;13.45;;;8.00;;
19593;SDS011;9944;48.240;16.478;2022-12-08T18:17:49;12.60;;;7.43;;
19593;SDS011;9944;48.240;16.478;2022-12-08T18:21:53;15.07;;;8.07;;
19593;SDS011;9944;48.240;16.478;2022-12-08T18:25:56;13.13;;;7.50;;
19593;SDS011;9944;48.240;16.478;2022-12-08T18:30:00;12.43;;;7.55;;
19593;SDS011;9944;48.240;16.478;2022-12-08T18:34:04;15.40;;;8.13;;
19593;SDS011;9944;48.240;16.478;2022-12-08T18:38:07;13.70;;;7.43;;
19593;SDS011;9944;48.240;16.478;2022-12-08T18:42:10;16.60;;;7.78;;
19593;SDS011;9944;48.240;16.478;2022-12-08T18:46:27;14.35;;;7.80;;
19593;SDS011;9944;48.240;16.478;2022-12-08T18:50:30;14.65;;;8.23;;
19593;SDS011;9944;48.240;16.478;2022-12-08T18:54:33;13.98;;;7.32;;
19593;SDS011;9944;48.240;16.478;2022-12-08T18:58:57;13.68;;;7.30;;
19593;SDS011;9944;48.240;16.478;2022-12-08T19:03:05;14.02;;;7.70;;
19593;SDS011;9944;48.240;16.478;2022-12-08T19:07:09;13.73;;;7.82;;
19593;SDS011;9944;48.240;16.478;2022-12-08T19:11:16;14.32;;;7.82;;
19593;SDS011;9944;48.240;16.478;2022-12-08T19:15:19;16.25;;;8.40;;
19593;SDS011;9944;48.240;16.478;2022-12-08T19:19:24;13.32;;;8.85;;
19593;SDS011;9944;48.240;16.478;2022-12-08T19:23:27;12.38;;;7.75;;
19593;SDS011;9944;48.240;16.478;2022-12-08T19:27:30;14.10;;;7.75;;
19593;SDS011;9944;48.240;16.478;2022-12-08T19:31:34;13.88;;;8.00;;
19593;SDS011;9944;48.240;16.478;2022-12-08T19:35:39;14.07;;;8.20;;
19593;SDS011;9944;48.240;16.478;2022-12-08T19:39:45;13.30;;;8.07;;
19593;SDS011;9944;48.240;16.478;2022-12-08T19:44:10;14.00;;;7.65;;
19593;SDS011;9944;48.240;16.478;2022-12-08T19:48:36;16.52;;;8.30;;
19593;SDS011;9944;48.240;16.478;2022-12-08T19:52:41;14.40;;;8.35;;
19593;SDS011;9944;48.240;16.478;2022-12-08T19:56:44;13.68;;;8.05;;
19593;SDS011;9944;48.240;16.478;2022-12-08T20:00:47;14.07;;;7.90;;
19593;SDS011;9944;48.240;16.478;2022-12-08T20:04:51;14.15;;;8.05;;
19593;SDS011;9944;48.240;16.478;2022-12-08T20:08:55;12.60;;;7.63;;
19593;SDS011;9944;48.240;16.478;2022-12-08T20:12:58;16.40;;;8.18;;
19593;SDS011;9944;48.240;16.478;2022-12-08T20:17:16;13.82;;;8.07;;
19593;SDS011;9944;48.240;16.478;2022-12-08T20:21:20;14.90;;;8.10;;
19593;SDS011;9944;48.240;16.478;2022-12-08T20:25:24;12.63;;;8.35;;
19593;SDS011;9944;48.240;16.478;2022-12-08T20:29:28;16.20;;;8.82;;
19593;SDS011;9944;48.240;16.478;2022-12-08T20:33:31;14.77;;;8.02;;
19593;SDS011;9944;48.240;16.478;2022-12-08T20:37:34;15.60;;;8.68;;
19593;SDS011;9944;48.240;16.478;2022-12-08T20:41:38;14.80;;;8.05;;
19593;SDS011;9944;48.240;16.478;2022-12-08T20:45:41;15.68;;;8.90;;
19593;SDS011;9944;48.240;16.478;2022-12-08T20:49:45;14.20;;;7.90;;
19593;SDS011;9944;48.240;16.478;2022-12-08T20:53:48;12.25;;;7.82;;
19593;SDS011;9944;48.240;16.478;2022-12-08T20:57:53;17.05;;;8.73;;
19593;SDS011;9944;48.240;16.478;2022-12-08T21:01:56;16.30;;;8.55;;
19593;SDS011;9944;48.240;16.478;2022-12-08T21:06:01;15.45;;;8.27;;
19593;SDS011;9944;48.240;16.478;2022-12-08T21:10:04;13.57;;;7.90;;
19593;SDS011;9944;48.240;16.478;2022-12-08T21:14:10;17.48;;;9.30;;
19593;SDS011;9944;48.240;16.478;2022-12-08T21:18:13;15.45;;;8.65;;
19593;SDS011;9944;48.240;16.478;2022-12-08T21:22:17;17.05;;;9.02;;
19593;SDS011;9944;48.240;16.478;2022-12-08T21:26:21;14.88;;;8.55;;
19593;SDS011;9944;48.240;16.478;2022-12-08T21:30:28;19.17;;;8.70;;
19593;SDS011;9944;48.240;16.478;2022-12-08T21:34:31;15.45;;;8.98;;
19593;SDS011;9944;48.240;16.478;2022-12-08T21:38:34;18.00;;;8.98;;
19593;SDS011;9944;48.240;16.478;2022-12-08T21:42:39;16.95;;;9.27;;
19593;SDS011;9944;48.240;16.478;2022-12-08T21:46:46;15.02;;;8.75;;
19593;SDS011;9944;48.240;16.478;2022-12-08T21:50:50;15.00;;;8.70;;
19593;SDS011;9944;48.240;16.478;2022-12-08T21:54:53;16.33;;;8.85;;
19593;SDS011;9944;48.240;16.478;2022-12-08T21:58:57;17.27;;;9.20;;
19593;SDS011;9944;48.240;16.478;2022-12-08T22:03:01;15.45;;;8.57;;
19593;SDS011;9944;48.240;16.478;2022-12-08T22:07:05;16.15;;;9.30;;
19593;SDS011;9944;48.240;16.478;2022-12-08T22:11:09;17.33;;;9.70;;
19593;SDS011;9944;48.240;16.478;2022-12-08T22:15:13;17.50;;;9.48;;
19593;SDS011;9944;48.240;16.478;2022-12-08T22:19:17;17.05;;;9.30;;
19593;SDS011;9944;48.240;16.478;2022-12-08T22:23:21;18.23;;;10.00;;
19593;SDS011;9944;48.240;16.478;2022-12-08T22:27:24;18.63;;;10.20;;
19593;SDS011;9944;48.240;16.478;2022-12-08T22:31:27;18.55;;;9.50;;
19593;SDS011;9944;48.240;16.478;2022-12-08T22:35:32;18.92;;;10.18;;
19593;SDS011;9944;48.240;16.478;2022-12-08T22:39:35;19.13;;;10.85;;
19593;SDS011;9944;48.240;16.478;2022-12-08T22:43:39;19.40;;;11.32;;
19593;SDS011;9944;48.240;16.478;2022-12-08T22:47:42;16.40;;;9.63;;
19593;SDS011;9944;48.240;16.478;2022-12-08T22:51:47;15.98;;;9.48;;
19593;SDS011;9944;48.240;16.478;2022-12-08T22:55:50;19.45;;;10.05;;
19593;SDS011;9944;48.240;16.478;2022-12-08T22:59:53;18.98;;;9.73;;
19593;SDS011;9944;48.240;16.478;2022-12-08T23:03:57;19.05;;;10.25;;
19593;SDS011;9944;48.240;16.478;2022-12-08T23:08:03;17.92;;;10.15;;
19593;SDS011;9944;48.240;16.478;2022-12-08T23:12:07;17.73;;;10.10;;
19593;SDS011;9944;48.240;16.478;2022-12-08T23:16:10;18.02;;;10.40;;
19593;SDS011;9944;48.240;16.478;2022-12-08T23:20:14;15.77;;;9.30;;
19593;SDS011;9944;48.240;16.478;2022-12-08T23:24:19;17.02;;;9.95;;
19593;SDS011;9944;48.240;16.478;2022-12-08T23:28:22;21.88;;;10.70;;
19593;SDS011;9944;48.240;16.478;2022-12-08T23:32:25;22.58;;;10.32;;
19593;SDS011;9944;48.240;16.478;2022-12-08T23:36:29;18.83;;;9.75;;
19593;SDS011;9944;48.240;16.478;2022-12-08T23:40:33;17.38;;;9.85;;
19593;SDS011;9944;48.240;16.478;2022-12-08T23:44:37;15.18;;;9.50;;
19593;SDS011;9944;48.240;16.478;2022-12-08T23:48:40;17.65;;;9.57;;
19593;SDS011;9944;48.240;16.478;2022-12-08T23:52:43;17.38;;;9.55;;
19593;SDS011;9944;48.240;16.478;2022-12-08T23:56:48;19.88;;;9.55;;
